Orchard Park, New York
Current Conditions -  °F | °C
As of 1:54 PM on Friday 28 Nov 2014 (Local Time) from KBUF Reporting Station
Broken Clouds Broken Clouds  
Wind Chill: 12°   Ceiling: 3600
Heat Index: 25°   Visibility: 10mi
Dew Point: 11°   Wind: 17mph
Humidity: 55%   Direction: 280°W
Pressure: 30.21"   Gusts: 22mph
Location:  42.77°N, 78.74°W
Report Text: KBUF 281854Z 28015G19KT 10SM BKN036 BKN042 BKN100 M04/M12 A3021 RMK AO2 SLP242 T10391117
Loading
Personal Weather Stations






























Interactive Weather Map New forecast layout! Learn more

10-Day Weather Forecast

Advertisements
Track Severe Weather on mobile